sensor_id;sensor_type;location;lat;lon;timestamp;P1;durP1;ratioP1;P2;durP2;ratioP2
9968;SDS011;5025;48.890;9.278;2024-01-07T00:00:33;14.60;;;13.10;;
9968;SDS011;5025;48.890;9.278;2024-01-07T00:02:58;14.07;;;12.57;;
9968;SDS011;5025;48.890;9.278;2024-01-07T00:05:24;14.20;;;12.73;;
9968;SDS011;5025;48.890;9.278;2024-01-07T00:07:49;13.30;;;11.90;;
9968;SDS011;5025;48.890;9.278;2024-01-07T00:10:15;12.63;;;11.40;;
9968;SDS011;5025;48.890;9.278;2024-01-07T00:12:41;15.03;;;13.43;;
9968;SDS011;5025;48.890;9.278;2024-01-07T00:15:06;13.50;;;12.10;;
9968;SDS011;5025;48.890;9.278;2024-01-07T00:17:31;13.53;;;12.13;;
9968;SDS011;5025;48.890;9.278;2024-01-07T00:19:57;12.73;;;11.40;;
9968;SDS011;5025;48.890;9.278;2024-01-07T00:22:22;15.00;;;13.37;;
9968;SDS011;5025;48.890;9.278;2024-01-07T00:24:47;13.50;;;12.03;;
9968;SDS011;5025;48.890;9.278;2024-01-07T00:27:13;12.80;;;11.30;;
9968;SDS011;5025;48.890;9.278;2024-01-07T00:29:38;12.20;;;10.70;;
9968;SDS011;5025;48.890;9.278;2024-01-07T00:32:03;14.97;;;13.23;;
9968;SDS011;5025;48.890;9.278;2024-01-07T00:34:29;15.27;;;12.93;;
9968;SDS011;5025;48.890;9.278;2024-01-07T00:36:54;16.00;;;13.57;;
9968;SDS011;5025;48.890;9.278;2024-01-07T00:39:19;16.23;;;14.50;;
9968;SDS011;5025;48.890;9.278;2024-01-07T00:41:46;17.53;;;14.53;;
9968;SDS011;5025;48.890;9.278;2024-01-07T00:44:11;14.43;;;12.53;;
9968;SDS011;5025;48.890;9.278;2024-01-07T00:46:36;16.53;;;13.83;;
9968;SDS011;5025;48.890;9.278;2024-01-07T00:49:01;14.03;;;12.53;;
9968;SDS011;5025;48.890;9.278;2024-01-07T00:51:27;13.10;;;11.80;;
9968;SDS011;5025;48.890;9.278;2024-01-07T00:53:52;13.37;;;11.97;;
9968;SDS011;5025;48.890;9.278;2024-01-07T00:56:17;12.47;;;11.17;;
9968;SDS011;5025;48.890;9.278;2024-01-07T00:58:42;11.47;;;10.27;;
9968;SDS011;5025;48.890;9.278;2024-01-07T01:01:07;12.30;;;11.10;;
9968;SDS011;5025;48.890;9.278;2024-01-07T01:03:33;12.37;;;11.07;;
9968;SDS011;5025;48.890;9.278;2024-01-07T01:05:58;12.17;;;10.87;;
9968;SDS011;5025;48.890;9.278;2024-01-07T01:08:23;12.97;;;11.07;;
9968;SDS011;5025;48.890;9.278;2024-01-07T01:10:49;12.10;;;10.90;;
9968;SDS011;5025;48.890;9.278;2024-01-07T01:13:14;11.60;;;10.50;;
9968;SDS011;5025;48.890;9.278;2024-01-07T01:15:39;11.60;;;10.47;;
9968;SDS011;5025;48.890;9.278;2024-01-07T01:18:05;11.40;;;10.30;;
9968;SDS011;5025;48.890;9.278;2024-01-07T01:20:30;10.67;;;9.50;;
9968;SDS011;5025;48.890;9.278;2024-01-07T01:22:55;11.20;;;10.03;;
9968;SDS011;5025;48.890;9.278;2024-01-07T01:25:21;9.93;;;8.93;;
9968;SDS011;5025;48.890;9.278;2024-01-07T01:27:46;10.43;;;9.40;;
9968;SDS011;5025;48.890;9.278;2024-01-07T01:30:11;10.47;;;9.37;;
9968;SDS011;5025;48.890;9.278;2024-01-07T01:32:37;10.87;;;9.77;;
9968;SDS011;5025;48.890;9.278;2024-01-07T01:35:04;11.23;;;10.13;;
9968;SDS011;5025;48.890;9.278;2024-01-07T01:37:30;11.03;;;9.93;;
9968;SDS011;5025;48.890;9.278;2024-01-07T01:39:57;11.90;;;10.67;;
9968;SDS011;5025;48.890;9.278;2024-01-07T01:42:23;11.27;;;9.40;;
9968;SDS011;5025;48.890;9.278;2024-01-07T01:44:48;10.40;;;9.30;;
9968;SDS011;5025;48.890;9.278;2024-01-07T01:47:13;10.80;;;9.70;;
9968;SDS011;5025;48.890;9.278;2024-01-07T01:49:39;10.10;;;9.00;;
9968;SDS011;5025;48.890;9.278;2024-01-07T01:52:05;11.27;;;10.13;;
9968;SDS011;5025;48.890;9.278;2024-01-07T01:54:30;11.80;;;9.87;;
9968;SDS011;5025;48.890;9.278;2024-01-07T01:56:56;10.47;;;9.40;;
9968;SDS011;5025;48.890;9.278;2024-01-07T01:59:21;11.53;;;10.33;;
9968;SDS011;5025;48.890;9.278;2024-01-07T02:01:48;11.30;;;10.07;;
9968;SDS011;5025;48.890;9.278;2024-01-07T02:04:14;13.30;;;11.90;;
9968;SDS011;5025;48.890;9.278;2024-01-07T02:06:40;12.40;;;11.10;;
9968;SDS011;5025;48.890;9.278;2024-01-07T02:09:05;13.13;;;10.87;;
9968;SDS011;5025;48.890;9.278;2024-01-07T02:11:30;13.63;;;11.63;;
9968;SDS011;5025;48.890;9.278;2024-01-07T02:13:55;12.20;;;10.50;;
9968;SDS011;5025;48.890;9.278;2024-01-07T02:16:21;12.73;;;11.20;;
9968;SDS011;5025;48.890;9.278;2024-01-07T02:18:46;11.07;;;9.90;;
9968;SDS011;5025;48.890;9.278;2024-01-07T02:21:14;12.13;;;10.90;;
9968;SDS011;5025;48.890;9.278;2024-01-07T02:23:40;14.00;;;12.10;;
9968;SDS011;5025;48.890;9.278;2024-01-07T02:26:05;13.87;;;12.47;;
9968;SDS011;5025;48.890;9.278;2024-01-07T02:28:31;13.27;;;11.67;;
9968;SDS011;5025;48.890;9.278;2024-01-07T02:30:57;13.77;;;11.53;;
9968;SDS011;5025;48.890;9.278;2024-01-07T02:33:22;13.57;;;12.13;;
9968;SDS011;5025;48.890;9.278;2024-01-07T02:35:48;12.63;;;11.40;;
9968;SDS011;5025;48.890;9.278;2024-01-07T02:38:13;12.70;;;11.23;;
9968;SDS011;5025;48.890;9.278;2024-01-07T02:40:38;12.50;;;11.30;;
9968;SDS011;5025;48.890;9.278;2024-01-07T02:43:03;12.33;;;11.00;;
9968;SDS011;5025;48.890;9.278;2024-01-07T02:45:29;10.93;;;9.83;;
9968;SDS011;5025;48.890;9.278;2024-01-07T02:47:54;10.97;;;9.83;;
9968;SDS011;5025;48.890;9.278;2024-01-07T02:50:19;10.50;;;9.30;;
9968;SDS011;5025;48.890;9.278;2024-01-07T02:52:44;11.80;;;10.60;;
9968;SDS011;5025;48.890;9.278;2024-01-07T02:55:10;11.33;;;10.23;;
9968;SDS011;5025;48.890;9.278;2024-01-07T02:57:35;13.33;;;11.93;;
9968;SDS011;5025;48.890;9.278;2024-01-07T03:00:00;11.50;;;10.30;;
9968;SDS011;5025;48.890;9.278;2024-01-07T03:02:27;12.50;;;11.20;;
9968;SDS011;5025;48.890;9.278;2024-01-07T03:04:52;10.57;;;9.57;;
9968;SDS011;5025;48.890;9.278;2024-01-07T03:07:18;9.87;;;8.97;;
9968;SDS011;5025;48.890;9.278;2024-01-07T03:09:43;10.13;;;9.17;;
9968;SDS011;5025;48.890;9.278;2024-01-07T03:12:08;9.50;;;8.60;;
9968;SDS011;5025;48.890;9.278;2024-01-07T03:14:33;12.47;;;10.87;;
9968;SDS011;5025;48.890;9.278;2024-01-07T03:16:59;10.10;;;9.10;;
9968;SDS011;5025;48.890;9.278;2024-01-07T03:19:24;11.30;;;9.90;;
9968;SDS011;5025;48.890;9.278;2024-01-07T03:21:50;10.60;;;9.60;;
9968;SDS011;5025;48.890;9.278;2024-01-07T03:24:15;10.23;;;9.17;;
9968;SDS011;5025;48.890;9.278;2024-01-07T03:26:41;10.23;;;9.23;;
9968;SDS011;5025;48.890;9.278;2024-01-07T03:29:06;11.97;;;10.77;;
9968;SDS011;5025;48.890;9.278;2024-01-07T03:31:31;9.60;;;8.80;;
9968;SDS011;5025;48.890;9.278;2024-01-07T03:33:57;11.30;;;9.67;;
9968;SDS011;5025;48.890;9.278;2024-01-07T03:36:22;9.60;;;8.70;;
9968;SDS011;5025;48.890;9.278;2024-01-07T03:38:47;9.53;;;8.63;;
9968;SDS011;5025;48.890;9.278;2024-01-07T03:41:16;9.70;;;8.80;;
9968;SDS011;5025;48.890;9.278;2024-01-07T03:43:43;9.53;;;8.63;;
9968;SDS011;5025;48.890;9.278;2024-01-07T03:46:08;10.43;;;9.43;;
9968;SDS011;5025;48.890;9.278;2024-01-07T03:48:33;9.60;;;8.60;;
9968;SDS011;5025;48.890;9.278;2024-01-07T03:50:59;9.77;;;8.77;;
9968;SDS011;5025;48.890;9.278;2024-01-07T03:53:24;11.37;;;9.73;;
9968;SDS011;5025;48.890;9.278;2024-01-07T03:55:49;9.37;;;8.47;;
9968;SDS011;5025;48.890;9.278;2024-01-07T03:58:15;9.53;;;8.63;;
9968;SDS011;5025;48.890;9.278;2024-01-07T04:00:40;9.37;;;8.37;;
9968;SDS011;5025;48.890;9.278;2024-01-07T04:03:05;9.33;;;8.43;;
9968;SDS011;5025;48.890;9.278;2024-01-07T04:05:30;9.47;;;8.57;;
9968;SDS011;5025;48.890;9.278;2024-01-07T04:07:55;10.30;;;9.20;;
9968;SDS011;5025;48.890;9.278;2024-01-07T04:10:21;9.67;;;8.77;;
9968;SDS011;5025;48.890;9.278;2024-01-07T04:12:46;10.03;;;9.03;;
9968;SDS011;5025;48.890;9.278;2024-01-07T04:15:11;9.83;;;8.83;;
9968;SDS011;5025;48.890;9.278;2024-01-07T04:17:37;10.47;;;9.47;;
9968;SDS011;5025;48.890;9.278;2024-01-07T04:20:02;10.73;;;9.67;;
9968;SDS011;5025;48.890;9.278;2024-01-07T04:22:28;8.97;;;8.07;;
9968;SDS011;5025;48.890;9.278;2024-01-07T04:24:53;10.03;;;9.10;;
9968;SDS011;5025;48.890;9.278;2024-01-07T04:27:18;11.00;;;9.87;;
9968;SDS011;5025;48.890;9.278;2024-01-07T04:29:44;9.97;;;8.93;;
9968;SDS011;5025;48.890;9.278;2024-01-07T04:32:09;10.47;;;9.47;;
9968;SDS011;5025;48.890;9.278;2024-01-07T04:34:34;10.30;;;9.30;;
9968;SDS011;5025;48.890;9.278;2024-01-07T04:37:00;9.23;;;8.33;;
9968;SDS011;5025;48.890;9.278;2024-01-07T04:39:25;9.73;;;8.73;;
9968;SDS011;5025;48.890;9.278;2024-01-07T04:41:51;9.43;;;8.53;;
9968;SDS011;5025;48.890;9.278;2024-01-07T04:44:16;9.40;;;8.50;;
9968;SDS011;5025;48.890;9.278;2024-01-07T04:46:41;9.53;;;8.60;;
9968;SDS011;5025;48.890;9.278;2024-01-07T04:49:06;9.67;;;8.67;;
9968;SDS011;5025;48.890;9.278;2024-01-07T04:51:35;8.93;;;8.13;;
9968;SDS011;5025;48.890;9.278;2024-01-07T04:54:03;9.47;;;8.57;;
9968;SDS011;5025;48.890;9.278;2024-01-07T04:56:28;8.83;;;8.03;;
9968;SDS011;5025;48.890;9.278;2024-01-07T04:58:53;8.60;;;7.80;;
9968;SDS011;5025;48.890;9.278;2024-01-07T05:01:19;8.13;;;7.33;;
9968;SDS011;5025;48.890;9.278;2024-01-07T05:03:44;8.73;;;7.90;;
9968;SDS011;5025;48.890;9.278;2024-01-07T05:06:09;8.93;;;7.90;;
9968;SDS011;5025;48.890;9.278;2024-01-07T05:08:35;8.77;;;7.87;;
9968;SDS011;5025;48.890;9.278;2024-01-07T05:11:02;7.67;;;6.90;;
9968;SDS011;5025;48.890;9.278;2024-01-07T05:13:27;8.47;;;7.60;;
9968;SDS011;5025;48.890;9.278;2024-01-07T05:15:52;8.27;;;7.47;;
9968;SDS011;5025;48.890;9.278;2024-01-07T05:18:21;8.00;;;7.20;;
9968;SDS011;5025;48.890;9.278;2024-01-07T05:20:50;8.87;;;7.97;;
9968;SDS011;5025;48.890;9.278;2024-01-07T05:23:16;9.13;;;8.00;;
9968;SDS011;5025;48.890;9.278;2024-01-07T05:25:45;7.20;;;6.50;;
9968;SDS011;5025;48.890;9.278;2024-01-07T05:28:11;7.47;;;6.70;;
9968;SDS011;5025;48.890;9.278;2024-01-07T05:30:37;8.13;;;7.30;;
9968;SDS011;5025;48.890;9.278;2024-01-07T05:33:04;7.50;;;6.80;;
9968;SDS011;5025;48.890;9.278;2024-01-07T05:35:29;7.13;;;6.43;;
9968;SDS011;5025;48.890;9.278;2024-01-07T05:37:55;7.47;;;6.77;;
9968;SDS011;5025;48.890;9.278;2024-01-07T05:40:20;7.90;;;7.13;;
9968;SDS011;5025;48.890;9.278;2024-01-07T05:42:45;8.83;;;7.50;;
9968;SDS011;5025;48.890;9.278;2024-01-07T05:45:10;7.47;;;6.77;;
9968;SDS011;5025;48.890;9.278;2024-01-07T05:47:36;8.10;;;7.17;;
9968;SDS011;5025;48.890;9.278;2024-01-07T05:50:01;7.40;;;6.73;;
9968;SDS011;5025;48.890;9.278;2024-01-07T05:52:27;7.40;;;6.70;;
9968;SDS011;5025;48.890;9.278;2024-01-07T05:54:52;8.13;;;7.30;;
9968;SDS011;5025;48.890;9.278;2024-01-07T05:57:17;7.77;;;7.07;;
9968;SDS011;5025;48.890;9.278;2024-01-07T05:59:43;7.13;;;6.43;;
9968;SDS011;5025;48.890;9.278;2024-01-07T06:02:09;7.83;;;7.00;;
9968;SDS011;5025;48.890;9.278;2024-01-07T06:04:34;7.80;;;7.10;;
9968;SDS011;5025;48.890;9.278;2024-01-07T06:06:59;7.50;;;6.80;;
9968;SDS011;5025;48.890;9.278;2024-01-07T06:09:25;7.67;;;6.93;;
9968;SDS011;5025;48.890;9.278;2024-01-07T06:11:50;7.70;;;7.00;;
9968;SDS011;5025;48.890;9.278;2024-01-07T06:14:15;7.33;;;6.73;;
9968;SDS011;5025;48.890;9.278;2024-01-07T06:16:40;7.73;;;7.03;;
9968;SDS011;5025;48.890;9.278;2024-01-07T06:19:06;7.57;;;6.87;;
9968;SDS011;5025;48.890;9.278;2024-01-07T06:21:32;7.70;;;6.97;;
9968;SDS011;5025;48.890;9.278;2024-01-07T06:23:57;7.07;;;6.47;;
9968;SDS011;5025;48.890;9.278;2024-01-07T06:26:22;7.83;;;7.13;;
9968;SDS011;5025;48.890;9.278;2024-01-07T06:28:47;7.30;;;6.60;;
9968;SDS011;5025;48.890;9.278;2024-01-07T06:31:13;6.90;;;6.20;;
9968;SDS011;5025;48.890;9.278;2024-01-07T06:33:38;8.20;;;7.50;;
9968;SDS011;5025;48.890;9.278;2024-01-07T06:36:03;8.00;;;7.30;;
9968;SDS011;5025;48.890;9.278;2024-01-07T06:38:29;7.80;;;7.10;;
9968;SDS011;5025;48.890;9.278;2024-01-07T06:40:54;7.00;;;6.40;;
9968;SDS011;5025;48.890;9.278;2024-01-07T06:43:20;7.83;;;7.07;;
9968;SDS011;5025;48.890;9.278;2024-01-07T06:45:45;7.20;;;6.57;;
9968;SDS011;5025;48.890;9.278;2024-01-07T06:48:10;6.83;;;6.23;;
9968;SDS011;5025;48.890;9.278;2024-01-07T06:50:36;7.17;;;6.57;;
9968;SDS011;5025;48.890;9.278;2024-01-07T06:53:01;8.63;;;7.83;;
9968;SDS011;5025;48.890;9.278;2024-01-07T06:55:26;7.23;;;6.53;;
9968;SDS011;5025;48.890;9.278;2024-01-07T06:57:51;7.17;;;6.50;;
9968;SDS011;5025;48.890;9.278;2024-01-07T07:00:17;7.13;;;6.53;;
9968;SDS011;5025;48.890;9.278;2024-01-07T07:02:42;7.77;;;7.07;;
9968;SDS011;5025;48.890;9.278;2024-01-07T07:05:08;6.70;;;6.03;;
9968;SDS011;5025;48.890;9.278;2024-01-07T07:07:33;7.20;;;6.50;;
9968;SDS011;5025;48.890;9.278;2024-01-07T07:09:59;6.80;;;6.20;;
9968;SDS011;5025;48.890;9.278;2024-01-07T07:12:24;6.63;;;6.07;;
9968;SDS011;5025;48.890;9.278;2024-01-07T07:14:49;6.67;;;6.00;;
9968;SDS011;5025;48.890;9.278;2024-01-07T07:17:15;7.70;;;7.00;;
9968;SDS011;5025;48.890;9.278;2024-01-07T07:19:40;6.17;;;5.67;;
9968;SDS011;5025;48.890;9.278;2024-01-07T07:22:05;6.63;;;6.03;;
9968;SDS011;5025;48.890;9.278;2024-01-07T07:24:30;6.23;;;5.73;;
9968;SDS011;5025;48.890;9.278;2024-01-07T07:26:56;6.50;;;5.90;;
9968;SDS011;5025;48.890;9.278;2024-01-07T07:29:21;6.77;;;6.10;;
9968;SDS011;5025;48.890;9.278;2024-01-07T07:31:46;6.43;;;5.93;;
9968;SDS011;5025;48.890;9.278;2024-01-07T07:34:11;6.03;;;5.47;;
9968;SDS011;5025;48.890;9.278;2024-01-07T07:36:37;6.43;;;5.90;;
9968;SDS011;5025;48.890;9.278;2024-01-07T07:39:02;6.63;;;6.13;;
9968;SDS011;5025;48.890;9.278;2024-01-07T07:41:27;6.07;;;5.43;;
9968;SDS011;5025;48.890;9.278;2024-01-07T07:43:53;6.10;;;5.50;;
9968;SDS011;5025;48.890;9.278;2024-01-07T07:46:19;6.47;;;5.87;;
9968;SDS011;5025;48.890;9.278;2024-01-07T07:48:44;7.13;;;6.53;;
9968;SDS011;5025;48.890;9.278;2024-01-07T07:51:10;6.20;;;5.60;;
9968;SDS011;5025;48.890;9.278;2024-01-07T07:53:37;6.20;;;5.70;;
9968;SDS011;5025;48.890;9.278;2024-01-07T07:56:03;6.10;;;5.50;;
9968;SDS011;5025;48.890;9.278;2024-01-07T07:58:29;6.93;;;6.33;;
9968;SDS011;5025;48.890;9.278;2024-01-07T08:00:54;6.50;;;6.00;;
9968;SDS011;5025;48.890;9.278;2024-01-07T08:03:20;5.70;;;5.20;;
9968;SDS011;5025;48.890;9.278;2024-01-07T08:05:45;5.90;;;5.30;;
9968;SDS011;5025;48.890;9.278;2024-01-07T08:08:10;5.57;;;5.07;;
9968;SDS011;5025;48.890;9.278;2024-01-07T08:10:39;5.93;;;5.43;;
9968;SDS011;5025;48.890;9.278;2024-01-07T08:13:04;6.00;;;5.50;;
9968;SDS011;5025;48.890;9.278;2024-01-07T08:15:31;5.63;;;5.13;;
9968;SDS011;5025;48.890;9.278;2024-01-07T08:17:56;5.70;;;5.20;;
9968;SDS011;5025;48.890;9.278;2024-01-07T08:20:21;4.93;;;4.47;;
9968;SDS011;5025;48.890;9.278;2024-01-07T08:22:47;5.83;;;5.23;;
9968;SDS011;5025;48.890;9.278;2024-01-07T08:25:12;5.90;;;5.30;;
9968;SDS011;5025;48.890;9.278;2024-01-07T08:27:38;5.90;;;5.30;;
9968;SDS011;5025;48.890;9.278;2024-01-07T08:30:06;5.77;;;5.27;;
9968;SDS011;5025;48.890;9.278;2024-01-07T08:32:31;5.83;;;5.23;;
9968;SDS011;5025;48.890;9.278;2024-01-07T08:34:57;5.30;;;4.90;;
9968;SDS011;5025;48.890;9.278;2024-01-07T08:37:22;6.17;;;5.57;;
9968;SDS011;5025;48.890;9.278;2024-01-07T08:39:47;5.97;;;5.47;;
9968;SDS011;5025;48.890;9.278;2024-01-07T08:42:12;5.77;;;5.20;;
9968;SDS011;5025;48.890;9.278;2024-01-07T08:44:38;5.10;;;4.63;;
9968;SDS011;5025;48.890;9.278;2024-01-07T08:47:04;4.80;;;4.40;;
9968;SDS011;5025;48.890;9.278;2024-01-07T08:49:30;4.30;;;3.90;;
9968;SDS011;5025;48.890;9.278;2024-01-07T08:51:57;4.50;;;4.10;;
9968;SDS011;5025;48.890;9.278;2024-01-07T08:54:23;4.70;;;4.30;;
9968;SDS011;5025;48.890;9.278;2024-01-07T08:56:48;4.53;;;4.13;;
9968;SDS011;5025;48.890;9.278;2024-01-07T08:59:14;3.80;;;3.50;;
9968;SDS011;5025;48.890;9.278;2024-01-07T09:01:39;3.30;;;3.10;;
9968;SDS011;5025;48.890;9.278;2024-01-07T09:04:05;3.63;;;3.33;;
9968;SDS011;5025;48.890;9.278;2024-01-07T09:06:30;3.27;;;3.07;;
9968;SDS011;5025;48.890;9.278;2024-01-07T09:08:55;3.70;;;3.40;;
9968;SDS011;5025;48.890;9.278;2024-01-07T09:11:21;3.37;;;3.10;;
9968;SDS011;5025;48.890;9.278;2024-01-07T09:13:47;3.50;;;3.20;;
9968;SDS011;5025;48.890;9.278;2024-01-07T09:16:15;4.30;;;3.90;;
9968;SDS011;5025;48.890;9.278;2024-01-07T09:18:40;3.80;;;3.53;;
9968;SDS011;5025;48.890;9.278;2024-01-07T09:21:06;3.80;;;3.60;;
9968;SDS011;5025;48.890;9.278;2024-01-07T09:23:31;3.50;;;3.30;;
9968;SDS011;5025;48.890;9.278;2024-01-07T09:25:58;4.10;;;3.80;;
9968;SDS011;5025;48.890;9.278;2024-01-07T09:28:24;3.80;;;3.50;;
9968;SDS011;5025;48.890;9.278;2024-01-07T09:30:49;4.00;;;3.60;;
9968;SDS011;5025;48.890;9.278;2024-01-07T09:33:15;4.23;;;3.83;;
9968;SDS011;5025;48.890;9.278;2024-01-07T09:35:40;3.57;;;3.27;;
9968;SDS011;5025;48.890;9.278;2024-01-07T09:38:05;4.30;;;3.90;;
9968;SDS011;5025;48.890;9.278;2024-01-07T09:40:30;4.30;;;4.00;;
9968;SDS011;5025;48.890;9.278;2024-01-07T09:42:56;3.70;;;3.50;;
9968;SDS011;5025;48.890;9.278;2024-01-07T09:45:21;4.57;;;4.17;;
9968;SDS011;5025;48.890;9.278;2024-01-07T09:47:48;4.37;;;3.97;;
9968;SDS011;5025;48.890;9.278;2024-01-07T09:50:14;4.70;;;4.30;;
9968;SDS011;5025;48.890;9.278;2024-01-07T09:52:41;5.00;;;4.60;;
9968;SDS011;5025;48.890;9.278;2024-01-07T09:55:09;4.63;;;4.07;;
9968;SDS011;5025;48.890;9.278;2024-01-07T09:57:34;4.57;;;4.17;;
9968;SDS011;5025;48.890;9.278;2024-01-07T10:00:02;4.33;;;4.03;;
9968;SDS011;5025;48.890;9.278;2024-01-07T10:02:29;4.27;;;3.97;;
9968;SDS011;5025;48.890;9.278;2024-01-07T10:04:54;3.87;;;3.57;;
9968;SDS011;5025;48.890;9.278;2024-01-07T10:07:20;4.03;;;3.73;;
9968;SDS011;5025;48.890;9.278;2024-01-07T10:09:45;3.93;;;3.63;;
9968;SDS011;5025;48.890;9.278;2024-01-07T10:12:11;4.03;;;3.73;;
9968;SDS011;5025;48.890;9.278;2024-01-07T10:14:39;4.40;;;4.00;;
9968;SDS011;5025;48.890;9.278;2024-01-07T10:17:15;4.63;;;4.23;;
9968;SDS011;5025;48.890;9.278;2024-01-07T10:19:42;4.90;;;4.50;;
9968;SDS011;5025;48.890;9.278;2024-01-07T10:22:08;6.00;;;5.40;;
9968;SDS011;5025;48.890;9.278;2024-01-07T10:24:37;5.37;;;4.90;;
9968;SDS011;5025;48.890;9.278;2024-01-07T10:27:04;5.10;;;4.70;;
9968;SDS011;5025;48.890;9.278;2024-01-07T10:29:30;5.30;;;4.80;;
9968;SDS011;5025;48.890;9.278;2024-01-07T10:31:59;5.20;;;4.70;;
9968;SDS011;5025;48.890;9.278;2024-01-07T10:34:29;5.43;;;4.93;;
9968;SDS011;5025;48.890;9.278;2024-01-07T10:36:56;5.23;;;4.83;;
9968;SDS011;5025;48.890;9.278;2024-01-07T10:39:23;5.43;;;4.93;;
9968;SDS011;5025;48.890;9.278;2024-01-07T10:41:49;5.33;;;4.93;;
9968;SDS011;5025;48.890;9.278;2024-01-07T10:44:15;5.20;;;4.80;;
9968;SDS011;5025;48.890;9.278;2024-01-07T10:46:40;5.23;;;4.83;;
9968;SDS011;5025;48.890;9.278;2024-01-07T10:49:13;5.00;;;4.60;;
9968;SDS011;5025;48.890;9.278;2024-01-07T10:51:45;4.97;;;4.57;;
9968;SDS011;5025;48.890;9.278;2024-01-07T10:54:20;4.93;;;4.53;;
9968;SDS011;5025;48.890;9.278;2024-01-07T10:56:48;4.80;;;4.40;;
9968;SDS011;5025;48.890;9.278;2024-01-07T10:59:18;4.80;;;4.40;;
9968;SDS011;5025;48.890;9.278;2024-01-07T11:01:44;4.90;;;4.50;;
9968;SDS011;5025;48.890;9.278;2024-01-07T11:04:14;4.80;;;4.47;;
9968;SDS011;5025;48.890;9.278;2024-01-07T11:07:19;4.50;;;4.10;;
9968;SDS011;5025;48.890;9.278;2024-01-07T11:09:56;4.70;;;4.30;;
9968;SDS011;5025;48.890;9.278;2024-01-07T11:12:48;4.60;;;4.20;;
9968;SDS011;5025;48.890;9.278;2024-01-07T11:18:19;4.00;;;3.70;;
9968;SDS011;5025;48.890;9.278;2024-01-07T11:20:46;4.13;;;3.83;;
9968;SDS011;5025;48.890;9.278;2024-01-07T11:23:31;4.30;;;4.00;;
9968;SDS011;5025;48.890;9.278;2024-01-07T11:26:05;4.30;;;4.00;;
9968;SDS011;5025;48.890;9.278;2024-01-07T11:29:12;4.53;;;4.13;;
9968;SDS011;5025;48.890;9.278;2024-01-07T11:31:21;3.93;;;3.63;;
9968;SDS011;5025;48.890;9.278;2024-01-07T11:34:07;4.70;;;4.30;;
9968;SDS011;5025;48.890;9.278;2024-01-07T11:36:36;4.87;;;4.47;;
9968;SDS011;5025;48.890;9.278;2024-01-07T11:39:02;3.87;;;3.60;;
9968;SDS011;5025;48.890;9.278;2024-01-07T11:41:29;4.60;;;4.30;;
9968;SDS011;5025;48.890;9.278;2024-01-07T11:43:58;5.10;;;4.70;;
9968;SDS011;5025;48.890;9.278;2024-01-07T11:46:25;5.03;;;4.63;;
9968;SDS011;5025;48.890;9.278;2024-01-07T11:48:58;4.77;;;4.37;;
9968;SDS011;5025;48.890;9.278;2024-01-07T11:51:24;5.07;;;4.67;;
9968;SDS011;5025;48.890;9.278;2024-01-07T11:53:51;4.43;;;4.13;;
9968;SDS011;5025;48.890;9.278;2024-01-07T11:56:17;5.00;;;4.60;;
9968;SDS011;5025;48.890;9.278;2024-01-07T11:58:42;4.23;;;3.93;;
9968;SDS011;5025;48.890;9.278;2024-01-07T12:01:07;4.90;;;4.50;;
9968;SDS011;5025;48.890;9.278;2024-01-07T12:03:33;5.00;;;4.60;;
9968;SDS011;5025;48.890;9.278;2024-01-07T12:05:58;5.30;;;4.90;;
9968;SDS011;5025;48.890;9.278;2024-01-07T12:08:24;5.30;;;4.90;;
9968;SDS011;5025;48.890;9.278;2024-01-07T12:10:49;5.13;;;4.73;;
9968;SDS011;5025;48.890;9.278;2024-01-07T12:13:15;4.67;;;4.27;;
9968;SDS011;5025;48.890;9.278;2024-01-07T12:15:41;5.30;;;4.90;;
9968;SDS011;5025;48.890;9.278;2024-01-07T12:18:07;6.30;;;5.60;;
9968;SDS011;5025;48.890;9.278;2024-01-07T12:20:32;5.97;;;5.50;;
9968;SDS011;5025;48.890;9.278;2024-01-07T12:22:57;6.23;;;5.73;;
9968;SDS011;5025;48.890;9.278;2024-01-07T12:25:30;6.27;;;5.77;;
9968;SDS011;5025;48.890;9.278;2024-01-07T12:27:55;6.23;;;5.73;;
9968;SDS011;5025;48.890;9.278;2024-01-07T12:30:20;6.00;;;5.50;;
9968;SDS011;5025;48.890;9.278;2024-01-07T12:32:46;5.97;;;5.47;;
9968;SDS011;5025;48.890;9.278;2024-01-07T12:35:11;6.17;;;5.67;;
9968;SDS011;5025;48.890;9.278;2024-01-07T12:37:37;6.47;;;5.97;;
9968;SDS011;5025;48.890;9.278;2024-01-07T12:40:03;6.00;;;5.50;;
9968;SDS011;5025;48.890;9.278;2024-01-07T12:42:29;6.10;;;5.60;;
9968;SDS011;5025;48.890;9.278;2024-01-07T12:44:54;6.83;;;6.13;;
9968;SDS011;5025;48.890;9.278;2024-01-07T12:47:20;6.27;;;5.77;;
9968;SDS011;5025;48.890;9.278;2024-01-07T12:49:45;6.30;;;5.80;;
9968;SDS011;5025;48.890;9.278;2024-01-07T12:52:10;5.70;;;5.20;;
9968;SDS011;5025;48.890;9.278;2024-01-07T12:54:36;5.93;;;5.43;;
9968;SDS011;5025;48.890;9.278;2024-01-07T12:57:03;5.70;;;5.20;;
9968;SDS011;5025;48.890;9.278;2024-01-07T12:59:28;6.47;;;5.87;;
9968;SDS011;5025;48.890;9.278;2024-01-07T13:01:53;5.60;;;5.10;;
9968;SDS011;5025;48.890;9.278;2024-01-07T13:04:19;5.83;;;5.33;;
9968;SDS011;5025;48.890;9.278;2024-01-07T13:06:44;6.13;;;5.60;;
9968;SDS011;5025;48.890;9.278;2024-01-07T13:09:10;6.20;;;5.60;;
9968;SDS011;5025;48.890;9.278;2024-01-07T13:11:36;5.50;;;5.00;;
9968;SDS011;5025;48.890;9.278;2024-01-07T13:14:01;5.80;;;5.30;;
9968;SDS011;5025;48.890;9.278;2024-01-07T13:16:27;5.80;;;5.30;;
9968;SDS011;5025;48.890;9.278;2024-01-07T13:18:53;5.90;;;5.40;;
9968;SDS011;5025;48.890;9.278;2024-01-07T13:21:18;6.73;;;6.13;;
9968;SDS011;5025;48.890;9.278;2024-01-07T13:23:45;7.00;;;6.30;;
9968;SDS011;5025;48.890;9.278;2024-01-07T13:26:10;6.73;;;6.13;;
9968;SDS011;5025;48.890;9.278;2024-01-07T13:28:36;5.97;;;5.47;;
9968;SDS011;5025;48.890;9.278;2024-01-07T13:31:01;6.47;;;5.87;;
9968;SDS011;5025;48.890;9.278;2024-01-07T13:33:28;5.87;;;5.37;;
9968;SDS011;5025;48.890;9.278;2024-01-07T13:35:54;6.47;;;5.87;;
9968;SDS011;5025;48.890;9.278;2024-01-07T13:38:19;6.37;;;5.87;;
9968;SDS011;5025;48.890;9.278;2024-01-07T13:40:44;6.53;;;5.93;;
9968;SDS011;5025;48.890;9.278;2024-01-07T13:43:10;6.30;;;5.70;;
9968;SDS011;5025;48.890;9.278;2024-01-07T13:45:35;6.63;;;5.90;;
9968;SDS011;5025;48.890;9.278;2024-01-07T13:48:01;6.20;;;5.63;;
9968;SDS011;5025;48.890;9.278;2024-01-07T13:50:26;6.20;;;5.70;;
9968;SDS011;5025;48.890;9.278;2024-01-07T13:52:51;6.50;;;5.93;;
9968;SDS011;5025;48.890;9.278;2024-01-07T13:55:17;6.43;;;5.83;;
9968;SDS011;5025;48.890;9.278;2024-01-07T13:57:42;7.23;;;6.53;;
9968;SDS011;5025;48.890;9.278;2024-01-07T14:00:07;6.17;;;5.57;;
9968;SDS011;5025;48.890;9.278;2024-01-07T14:02:34;6.80;;;6.20;;
9968;SDS011;5025;48.890;9.278;2024-01-07T14:05:02;7.23;;;6.53;;
9968;SDS011;5025;48.890;9.278;2024-01-07T14:07:31;7.53;;;6.83;;
9968;SDS011;5025;48.890;9.278;2024-01-07T14:09:56;6.87;;;6.27;;
9968;SDS011;5025;48.890;9.278;2024-01-07T14:12:21;7.37;;;6.67;;
9968;SDS011;5025;48.890;9.278;2024-01-07T14:14:46;7.27;;;6.57;;
9968;SDS011;5025;48.890;9.278;2024-01-07T14:17:12;7.47;;;6.67;;
9968;SDS011;5025;48.890;9.278;2024-01-07T14:19:37;7.60;;;6.90;;
9968;SDS011;5025;48.890;9.278;2024-01-07T14:22:02;7.20;;;6.50;;
9968;SDS011;5025;48.890;9.278;2024-01-07T14:24:28;7.20;;;6.50;;
9968;SDS011;5025;48.890;9.278;2024-01-07T14:26:53;7.20;;;6.50;;
9968;SDS011;5025;48.890;9.278;2024-01-07T14:29:18;7.07;;;6.40;;
9968;SDS011;5025;48.890;9.278;2024-01-07T14:31:44;7.50;;;6.70;;
9968;SDS011;5025;48.890;9.278;2024-01-07T14:34:10;7.53;;;6.83;;
9968;SDS011;5025;48.890;9.278;2024-01-07T14:36:39;6.90;;;6.20;;
9968;SDS011;5025;48.890;9.278;2024-01-07T14:39:05;6.63;;;6.03;;
9968;SDS011;5025;48.890;9.278;2024-01-07T14:41:30;6.70;;;6.10;;
9968;SDS011;5025;48.890;9.278;2024-01-07T14:43:56;6.80;;;6.10;;
9968;SDS011;5025;48.890;9.278;2024-01-07T14:46:21;6.47;;;5.87;;
9968;SDS011;5025;48.890;9.278;2024-01-07T14:48:46;7.43;;;6.73;;
9968;SDS011;5025;48.890;9.278;2024-01-07T14:51:12;6.93;;;6.10;;
9968;SDS011;5025;48.890;9.278;2024-01-07T14:53:37;6.83;;;6.23;;
9968;SDS011;5025;48.890;9.278;2024-01-07T14:56:02;6.87;;;6.17;;
9968;SDS011;5025;48.890;9.278;2024-01-07T14:58:28;7.63;;;6.83;;
9968;SDS011;5025;48.890;9.278;2024-01-07T15:00:53;6.90;;;6.10;;
9968;SDS011;5025;48.890;9.278;2024-01-07T15:03:18;6.87;;;6.23;;
9968;SDS011;5025;48.890;9.278;2024-01-07T15:05:44;6.80;;;6.20;;